createdAt,value
2022-10-11T10:50:52.874Z,8.18
2022-10-11T10:53:24.452Z,11.48
2022-10-11T10:55:48.151Z,6.60
2022-10-11T10:58:25.980Z,8.00
2022-10-11T11:00:49.944Z,9.70
2022-10-11T11:03:26.664Z,13.65
2022-10-11T11:06:04.190Z,8.82
2022-10-11T11:08:45.469Z,8.45
2022-10-11T11:11:26.681Z,9.40
2022-10-11T11:13:59.302Z,10.43
2022-10-11T11:16:38.309Z,6.43
2022-10-11T11:19:05.849Z,5.50
2022-10-11T11:21:46.868Z,5.93
2022-10-11T11:24:11.632Z,7.40
2022-10-11T11:26:44.413Z,9.15
2022-10-11T11:29:13.107Z,9.20
2022-10-11T11:31:41.229Z,8.10
2022-10-11T11:34:33.097Z,4.78
2022-10-11T11:37:04.472Z,6.25
2022-10-11T11:39:32.627Z,8.82
2022-10-11T11:42:23.830Z,8.73
2022-10-11T11:44:50.404Z,10.82
2022-10-11T11:47:27.641Z,10.43
2022-10-11T11:50:03.529Z,7.50
2022-10-11T11:52:37.804Z,5.57
2022-10-11T11:55:04.181Z,7.20
2022-10-11T11:57:26.633Z,5.97
2022-10-11T12:00:04.064Z,8.77
2022-10-11T12:02:39.934Z,6.75
2022-10-11T12:05:02.387Z,8.40
2022-10-11T12:07:25.939Z,8.55
2022-10-11T12:09:52.885Z,5.78
2022-10-11T12:12:29.761Z,9.43
2022-10-11T12:14:53.313Z,6.53
2022-10-11T12:17:18.644Z,8.73
2022-10-11T12:19:59.385Z,4.70
2022-10-11T12:22:27.676Z,7.32
2022-10-11T12:25:00.584Z,7.22
2022-10-11T12:27:41.619Z,5.70
2022-10-11T12:30:05.104Z,7.75
2022-10-11T12:32:27.301Z,5.45
2022-10-11T12:34:52.374Z,5.45
2022-10-11T12:37:20.783Z,8.43
2022-10-11T12:39:52.060Z,4.80
2022-10-11T12:42:22.499Z,6.50
2022-10-11T12:45:04.964Z,6.03
2022-10-11T12:47:56.545Z,5.57
2022-10-11T12:50:43.459Z,4.78
2022-10-11T12:53:17.965Z,5.32
2022-10-11T12:56:06.582Z,8.02
2022-10-11T12:58:41.505Z,5.80
2022-10-11T13:01:03.716Z,8.10
2022-10-11T13:03:31.111Z,6.15
2022-10-11T13:06:01.476Z,10.00
2022-10-11T13:08:32.193Z,9.35
2022-10-11T13:10:56.607Z,7.03
2022-10-11T13:13:23.773Z,8.52
2022-10-11T13:15:46.228Z,6.35
2022-10-11T13:18:15.957Z,6.72
2022-10-11T13:20:42.484Z,6.60
2022-10-11T13:23:20.281Z,7.32
2022-10-11T13:25:42.829Z,6.43
2022-10-11T13:28:09.533Z,7.78
2022-10-11T13:30:34.258Z,6.45
2022-10-11T13:32:57.153Z,5.72
2022-10-11T13:35:26.604Z,8.75
2022-10-11T13:37:49.547Z,6.90
2022-10-11T13:40:15.828Z,6.10
2022-10-11T13:42:38.029Z,7.20
2022-10-11T13:45:03.266Z,6.68
2022-10-11T13:47:26.986Z,9.05
2022-10-11T13:49:53.480Z,5.72
2022-10-11T13:52:19.307Z,5.28
2022-10-11T13:55:01.686Z,9.73
2022-10-11T13:57:31.385Z,6.68
2022-10-11T13:59:53.618Z,9.52
2022-10-11T14:02:18.756Z,5.93
2022-10-11T14:04:41.707Z,6.43
2022-10-11T14:07:04.145Z,8.93
2022-10-11T14:09:28.839Z,4.35
2022-10-11T14:11:52.219Z,6.30
2022-10-11T14:14:29.802Z,4.97
2022-10-11T14:17:04.630Z,9.57
2022-10-11T14:19:26.889Z,8.70
2022-10-11T14:21:51.419Z,8.35
2022-10-11T14:24:14.505Z,9.23
2022-10-11T14:26:38.210Z,6.68
2022-10-11T14:29:01.819Z,7.38
2022-10-11T14:31:24.832Z,6.22
2022-10-11T14:33:47.065Z,7.55
2022-10-11T14:36:09.300Z,5.38
2022-10-11T14:38:31.593Z,8.38
2022-10-11T14:40:53.785Z,8.25
2022-10-11T14:43:16.063Z,7.90
2022-10-11T14:45:38.383Z,8.77
2022-10-11T14:48:01.032Z,5.60
2022-10-11T14:50:29.617Z,5.15
2022-10-11T14:52:51.883Z,6.07
2022-10-11T14:55:14.151Z,5.47
2022-10-11T14:57:36.369Z,4.68
2022-10-11T14:59:58.593Z,5.22
2022-10-11T15:02:24.191Z,6.93
2022-10-11T15:04:46.395Z,5.68
2022-10-11T15:07:08.712Z,10.02
2022-10-11T15:09:31.417Z,7.07
2022-10-11T15:11:54.739Z,6.00
2022-10-11T15:14:17.317Z,5.82
2022-10-11T15:16:42.632Z,4.57
2022-10-11T15:19:05.050Z,3.80
2022-10-11T15:21:30.271Z,5.75
2022-10-11T15:23:53.029Z,8.38
2022-10-11T15:26:16.317Z,9.00
2022-10-11T15:28:38.536Z,7.85
2022-10-11T15:31:00.890Z,4.40
2022-10-11T15:33:23.244Z,6.70
2022-10-11T15:35:45.445Z,8.07
2022-10-11T15:38:07.638Z,7.60
2022-10-11T15:40:36.824Z,9.20
2022-10-11T15:42:59.069Z,5.32
2022-10-11T15:45:21.897Z,7.07
2022-10-11T15:47:44.914Z,3.80
2022-10-11T15:50:13.261Z,7.28
2022-10-11T15:52:35.456Z,8.73
2022-10-11T15:54:57.682Z,6.15
2022-10-11T15:57:19.889Z,6.10
2022-10-11T15:59:42.160Z,4.47
2022-10-11T16:02:04.407Z,4.65
2022-10-11T16:04:26.758Z,5.70
2022-10-11T16:06:49.050Z,8.35
2022-10-11T16:09:18.725Z,7.47
2022-10-11T16:11:41.375Z,5.30
2022-10-11T16:14:04.161Z,2.78
2022-10-11T16:16:30.039Z,5.90
2022-10-11T16:18:58.646Z,6.65
2022-10-11T16:21:23.648Z,6.53
2022-10-11T16:26:32.380Z,2.88
2022-10-11T16:31:41.835Z,4.82
2022-10-11T16:34:07.752Z,4.45
2022-10-11T16:36:35.859Z,5.65
2022-10-11T16:39:00.833Z,2.75
2022-10-11T16:41:23.583Z,9.20
2022-10-11T16:43:45.964Z,7.90
2022-10-11T16:46:13.972Z,5.13
2022-10-11T16:51:17.488Z,9.27
2022-10-11T16:53:40.675Z,5.63
2022-10-11T16:56:10.232Z,4.90
2022-10-11T16:58:39.240Z,5.97
2022-10-11T17:01:03.958Z,8.00
2022-10-11T17:03:29.649Z,6.63
2022-10-11T17:05:55.262Z,4.77
2022-10-11T17:11:08.501Z,7.43
2022-10-11T17:13:37.690Z,11.80
2022-10-11T17:16:02.994Z,9.57
2022-10-11T17:18:30.788Z,5.70
2022-10-11T17:21:02.219Z,6.93
2022-10-11T17:23:25.406Z,5.23
2022-10-11T17:25:49.318Z,6.17
2022-10-11T17:28:15.878Z,5.17
2022-10-11T17:30:47.167Z,6.67
2022-10-11T17:33:14.103Z,6.30
2022-10-11T17:35:39.468Z,6.30
2022-10-11T17:38:05.985Z,5.93
2022-10-11T17:40:30.359Z,6.03
2022-10-11T17:42:55.678Z,6.90
2022-10-11T17:45:28.476Z,6.20
2022-10-11T17:47:57.157Z,6.30
2022-10-11T17:50:21.256Z,5.37
2022-10-11T17:52:44.197Z,6.97
2022-10-11T17:55:07.135Z,7.73
2022-10-11T17:57:32.970Z,4.57
2022-10-11T17:59:55.498Z,4.50
2022-10-11T18:02:19.125Z,6.50
2022-10-11T18:04:45.196Z,8.40
2022-10-11T18:07:07.609Z,6.23
2022-10-11T18:09:32.428Z,4.83
2022-10-11T18:11:56.991Z,6.23
2022-10-11T18:14:28.367Z,6.00
2022-10-11T18:16:53.276Z,6.60
2022-10-11T18:19:22.045Z,6.83
2022-10-11T18:21:49.831Z,8.87
2022-10-11T18:24:15.232Z,6.13
2022-10-11T18:29:26.923Z,5.77
2022-10-11T18:31:49.554Z,4.77
2022-10-11T18:34:15.486Z,5.27
2022-10-11T18:36:38.335Z,6.27
2022-10-11T18:39:02.967Z,6.80
2022-10-11T18:41:39.549Z,6.37
2022-10-11T18:44:17.332Z,2.93
2022-10-11T18:46:39.731Z,6.77
2022-10-11T18:49:04.786Z,8.97
2022-10-11T18:51:32.081Z,6.87
2022-10-11T18:54:01.485Z,5.60
2022-10-11T18:56:24.846Z,7.00
2022-10-11T18:58:47.694Z,7.43
2022-10-11T19:01:18.346Z,6.97
2022-10-11T19:03:40.852Z,4.43
2022-10-11T19:06:07.068Z,9.97
2022-10-11T19:08:38.460Z,34.00
2022-10-11T19:11:07.947Z,32.90
2022-10-11T19:13:33.765Z,23.83
2022-10-11T19:15:56.202Z,12.87
2022-10-11T19:18:29.593Z,13.50
2022-10-11T19:21:00.223Z,9.77
2022-10-11T19:23:25.648Z,6.50
2022-10-11T19:25:47.958Z,7.83
2022-10-11T19:28:15.756Z,6.53
2022-10-11T19:30:38.304Z,4.80
2022-10-11T19:33:04.672Z,9.30
2022-10-11T19:35:34.719Z,5.03
2022-10-11T19:37:57.241Z,5.80
2022-10-11T19:40:19.810Z,6.50
2022-10-11T19:42:42.344Z,5.30
2022-10-11T19:45:11.027Z,4.93
2022-10-11T19:47:34.713Z,6.50
2022-10-11T19:49:57.132Z,8.53
2022-10-11T19:52:22.247Z,7.20
2022-10-11T19:54:51.021Z,7.93
2022-10-11T19:57:15.509Z,4.93
2022-10-11T19:59:41.219Z,6.77
2022-10-11T20:02:03.558Z,8.97
2022-10-11T20:07:10.021Z,7.07
2022-10-11T20:09:32.478Z,7.23
2022-10-11T20:11:55.139Z,7.30
2022-10-11T20:14:26.763Z,7.17
2022-10-11T20:16:50.897Z,7.37
2022-10-11T20:19:27.797Z,8.73
2022-10-11T20:22:02.257Z,12.67
2022-10-11T20:24:27.619Z,11.70
2022-10-11T20:26:50.487Z,8.03
2022-10-11T20:29:16.027Z,6.83
2022-10-11T20:31:40.769Z,7.13
2022-10-11T20:34:07.546Z,7.17
2022-10-11T20:36:34.370Z,10.23
2022-10-11T20:38:59.191Z,10.23
2022-10-11T20:41:26.244Z,8.93
2022-10-11T20:43:56.642Z,8.90
2022-10-11T20:46:20.125Z,9.13
2022-10-11T20:48:49.379Z,10.03
2022-10-11T20:51:24.437Z,12.07
2022-10-11T20:53:50.450Z,10.43
2022-10-11T20:56:14.123Z,8.80
2022-10-11T20:58:43.012Z,8.83
2022-10-11T21:01:16.474Z,10.03
2022-10-11T21:03:39.008Z,8.57
2022-10-11T21:06:01.187Z,9.37
2022-10-11T21:08:23.968Z,11.57
2022-10-11T21:10:51.752Z,11.83
2022-10-11T21:13:13.944Z,12.50
2022-10-11T21:15:36.850Z,9.53
2022-10-11T21:17:59.183Z,9.30
2022-10-11T21:20:21.440Z,22.30
2022-10-11T21:22:43.628Z,42.57
2022-10-11T21:25:06.008Z,34.57
2022-10-11T21:27:28.860Z,39.77
2022-10-11T21:29:51.512Z,22.50
2022-10-11T21:32:14.589Z,32.47
2022-10-11T21:34:36.896Z,58.53
2022-10-11T21:37:00.458Z,36.10
2022-10-11T21:39:22.653Z,23.27
2022-10-11T21:41:44.811Z,42.17
2022-10-11T21:44:07.892Z,21.77
2022-10-11T21:47:01.103Z,14.73
2022-10-11T21:49:14.330Z,13.00
2022-10-11T21:51:36.736Z,10.53
2022-10-11T21:54:02.901Z,9.23
2022-10-11T21:56:25.113Z,9.90
2022-10-11T21:58:48.229Z,12.03
2022-10-11T22:01:12.059Z,9.70
2022-10-11T22:03:34.360Z,9.33
2022-10-11T22:05:56.560Z,9.60
2022-10-11T22:08:18.988Z,9.47
2022-10-11T22:10:53.372Z,10.13
2022-10-11T22:13:15.595Z,8.73
2022-10-11T22:15:38.371Z,11.60
2022-10-11T22:18:00.599Z,9.90
2022-10-11T22:20:22.809Z,7.07
2022-10-11T22:22:44.980Z,8.27
2022-10-11T22:25:07.337Z,9.27
2022-10-11T22:27:29.537Z,8.83
2022-10-11T22:29:51.767Z,8.60
2022-10-11T22:32:13.946Z,7.50
2022-10-11T22:34:36.380Z,8.67
2022-10-11T22:36:58.631Z,7.63
2022-10-11T22:39:20.812Z,7.47
2022-10-11T22:41:42.995Z,8.63
2022-10-11T22:44:06.029Z,10.77
2022-10-11T22:46:28.211Z,8.63
2022-10-11T22:48:50.441Z,9.07
2022-10-11T22:51:12.711Z,5.63
2022-10-11T22:53:34.872Z,8.37
2022-10-11T22:55:57.156Z,7.13
2022-10-11T22:58:19.367Z,7.67
2022-10-11T23:00:41.548Z,6.43
2022-10-11T23:03:03.772Z,6.53
2022-10-11T23:05:26.029Z,7.30
2022-10-11T23:07:48.324Z,5.43
2022-10-11T23:10:10.533Z,7.10
2022-10-11T23:12:32.780Z,7.10
2022-10-11T23:14:54.989Z,5.53
2022-10-11T23:17:17.403Z,6.83
2022-10-11T23:19:39.876Z,9.17
2022-10-11T23:22:02.061Z,6.97
2022-10-11T23:24:24.329Z,6.57
2022-10-11T23:26:46.526Z,8.77
2022-10-11T23:29:08.730Z,7.33
2022-10-11T23:31:30.938Z,8.77
2022-10-11T23:33:54.371Z,8.47
2022-10-11T23:36:21.352Z,6.43
2022-10-11T23:38:43.924Z,11.97
2022-10-11T23:41:06.104Z,6.30
2022-10-11T23:43:28.652Z,5.83
2022-10-11T23:45:51.208Z,8.13
2022-10-11T23:48:13.555Z,7.17
2022-10-11T23:50:35.745Z,8.27
2022-10-11T23:52:57.911Z,7.80
2022-10-11T23:55:20.144Z,11.17
2022-10-11T23:57:42.428Z,7.43
